Terminal Aerodrome Forecast
Issued by NWS

Home | Current Version | Previous Version | Graphics & Text | Print | Product List | Glossary On
Versions: 1 2 3 4 5 6 7 8 9 10 11 12 13 14 15 16 17 18
000
FTUS43 KBIS 221519 AAA
TAFMOT
TAF AMD
KMOT 221519Z 2215/2312 20005KT P6SM SCT200
     FM222000 17006KT P6SM SCT060 SCT200
     FM230000 13007KT P6SM VCTS SCT060CB BKN200
     FM230200 09006KT P6SM BKN150
     FM230600 12005KT P6SM BKN200=

USA.gov is the U.S. government's official web portal to all federal, state and local government web resources and services.